Polk Army Air Field
KPOE : now visible

Airfield :











YOU CAN JOIN US ON...

 
LOGIN :

Register | Disclaimer

   EN    FR    IT 

 









Legend :    VFR   Marginal VFR   IFR   Intensive IFR   Very Intensive IFR
Visi :
Ceiling :
>= 8 km
>= 3000ft
5 to 8 km
1000 to 3000 ft
1500m to 5 km
500 to 1000 ft
800 to 1500m
200 to 500 ft
< 800m
< 200 ft
Symbols :   Thunderstorms  Fog  Heavy snow  Heavy precipitations  Wind > 20 kt






- Airport Elevation : 330 ft


KPOE - Polk Army Air Field

CURRENT METAR :
  • 261658Z AUTO 00000KT 10SM BKN110 OVC140 22/19 A2989 RMK AO2 RAE01 SLP121 P0000 T02220188

EXPIRED METARs :
  • 261601Z AUTO 00000KT 8SM OVC110 22/19 A2990 RMK AO2 RAE01 SLP125
  • 261558Z AUTO 00000KT 7SM -RA OVC110 22/18 A2991 RMK AO2 RAB54 SLP128 P0000 T02180182
  • 261458Z AUTO 02003KT 10SM BKN120 OVC150 22/18 A2990 RMK AO2 SLP125 T02190181 53011

TAF TAF KPOE
Valid from the 26 at 16:00 until the 27 at 22:00 UTC


261600Z 2616/2722 VRB06KT 9999 -RA FEW015 QNH2983INS
BECMG 2620/2621 VRB06KT 9999 -SHRA BKN090 QNH2984INS
TEMPO 2621/2624 32010G15KT 8000 -TSRA BKN050CB
BECMG 2700/2701VRB06KT 9999 NSW FEW050 QNH2987INS
BECMG 2715/2716 29010G15KT 9000 -SHRA FEW060 QNH2986INS TX28/2620Z TN18/2710Z
KZHU FIR / North America



MET'MAP, your aeronautical weather chart ! - Copyright ORBIFLY December 2007 - Disclaimer

ORBIFLY MET'MAP TEAM :

Programming & Development : Alexandra Zaïnal
Concept & original design : Baudouin d'Aumeries
Assistance for programming : Marc-Olivier Méhu
Technical & hardware support : Manuel Goepfert

Contact : metmap@orbifly.com




SOURCES & CREDITS :

   NOAA       Earth
Advisory